^^
Saratoga-Weather Station Historical Data
Daily Summary for April 14, 2021 Units:  Metric    English   Both
Daily Weekly Monthly Yearly Custom
  High: Low: Average:
Temperature: 17.8 °C 15.2 °C 16 °C
Dew Point: 16.8 °C 14.2 °C 15.1 °C
Humidity: 96% 93% 95%
Wind Speed: 19.5km/h 0km/h 3.2km/h
Wind Gust: 19.3km/h - -
Wind- - SW
Pressure: 1010.5 hPa 1008.8 hPa -
Precipitation: 48.5 mm    
Historical Graphs
 
 
Tabular Data for April 14, 2021
Time Temperature Dew Point Pressure Wind Wind Speed Wind Gust Humidity Rainfall Rate (Hourly) solar
00:04 15.4 °C 14.6 °C 1009.1 hPa WSW 1.4 km/h 6.4 km/h 95% 0.0 mm 0 W/m2
00:09 15.4 °C 14.6 °C 1009.1 hPa Calm   1.6 km/h 95% 0.0 mm 0 W/m2
00:14 15.4 °C 14.6 °C 1009.1 hPa Calm   1.6 km/h 95% 0.0 mm 0 W/m2
00:19 15.4 °C 14.6 °C 1009.5 hPa WSW 1.4 km/h 6.4 km/h 95% 0.0 mm 0 W/m2
00:24 15.4 °C 14.6 °C 1009.5 hPa Calm   3.2 km/h 95% 0.0 mm 0 W/m2
00:29 15.4 °C 14.6 °C 1009.5 hPa Calm   1.6 km/h 95% 0.0 mm 0 W/m2
00:34 15.4 °C 14.6 °C 1009.5 hPa NNW 3.2 km/h 3.2 km/h 95% 0.0 mm 0 W/m2
00:39 15.5 °C 14.7 °C 1009.5 hPa Calm   1.6 km/h 95% 0.0 mm 0 W/m2
00:44 15.5 °C 14.7 °C 1009.1 hPa Calm   1.6 km/h 95% 0.0 mm 0 W/m2
00:49 15.4 °C 14.6 °C 1009.5 hPa West 1.4 km/h 6.4 km/h 95% 0.0 mm 0 W/m2
00:54 15.4 °C 14.6 °C 1009.1 hPa WNW 1.4 km/h 3.2 km/h 95% 0.0 mm 0 W/m2
00:59 15.3 °C 14.3 °C 1009.1 hPa West 1.4 km/h 4.8 km/h 94% 0.0 mm 0 W/m2
01:04 15.3 °C 14.5 °C 1009.1 hPa West 3.2 km/h 4.8 km/h 95% 0.0 mm 0 W/m2
01:09 15.3 °C 14.5 °C 1009.1 hPa Calm   4.8 km/h 95% 0.0 mm 0 W/m2
01:14 15.2 °C 14.2 °C 1008.8 hPa West 3.2 km/h 3.2 km/h 94% 0.0 mm 0 W/m2
01:19 15.2 °C 14.4 °C 1009.1 hPa West 3.2 km/h 12.9 km/h 95% 0.0 mm 0 W/m2
01:24 15.3 °C 14.5 °C 1009.1 hPa WSW 1.4 km/h 3.2 km/h 95% 0.0 mm 0 W/m2
01:29 15.3 °C 14.5 °C 1009.1 hPa Calm   12.9 km/h 95% 0.0 mm 0 W/m2
01:34 15.3 °C 14.5 °C 1008.8 hPa WNW 3.2 km/h 3.2 km/h 95% 0.0 mm 0 W/m2
01:39 15.3 °C 14.5 °C 1009.1 hPa Calm   3.2 km/h 95% 0.0 mm 0 W/m2
01:44 15.4 °C 14.6 °C 1009.1 hPa ESE 3.2 km/h 6.4 km/h 95% 0.0 mm 0 W/m2
01:49 15.4 °C 14.6 °C 1009.5 hPa South 1.4 km/h 3.2 km/h 95% 0.0 mm 0 W/m2
01:54 15.4 °C 14.6 °C 1009.5 hPa East 1.4 km/h 3.2 km/h 95% 0.0 mm 0 W/m2
01:59 15.4 °C 14.6 °C 1009.5 hPa SE 3.2 km/h 3.2 km/h 95% 0.0 mm 0 W/m2
02:04 15.4 °C 14.6 °C 1009.5 hPa Calm   4.8 km/h 95% 0.0 mm 0 W/m2
02:09 15.4 °C 14.6 °C 1009.5 hPa NNE 1.4 km/h 3.2 km/h 95% 0.0 mm 0 W/m2
02:14 15.4 °C 14.6 °C 1009.5 hPa Calm   3.2 km/h 95% 0.0 mm 0 W/m2
02:19 15.5 °C 14.7 °C 1009.5 hPa ENE 3.2 km/h 3.2 km/h 95% 0.0 mm 0 W/m2
02:24 15.5 °C 14.7 °C 1009.8 hPa NE 4.7 km/h 6.4 km/h 95% 0.0 mm 0 W/m2
02:29 15.5 °C 14.7 °C 1009.8 hPa NE 4.7 km/h 6.4 km/h 95% 0.0 mm 0 W/m2
02:34 15.6 °C 14.8 °C 1009.8 hPa NE 3.2 km/h 4.8 km/h 95% 0.0 mm 0 W/m2
02:39 15.6 °C 14.8 °C 1009.8 hPa NE 3.2 km/h 3.2 km/h 95% 0.0 mm 0 W/m2
02:44 15.6 °C 14.8 °C 1009.8 hPa NE 1.4 km/h 6.4 km/h 95% 0.0 mm 0 W/m2
02:49 15.6 °C 14.8 °C 1009.5 hPa Calm   1.6 km/h 95% 0.0 mm 0 W/m2
02:55 15.6 °C 14.8 °C 1009.5 hPa Calm   1.6 km/h 95% 0.0 mm 0 W/m2
03:00 15.6 °C 14.8 °C 1009.5 hPa Calm   3.2 km/h 95% 0.0 mm 0 W/m2
03:05 15.6 °C 14.8 °C 1009.1 hPa North 3.2 km/h 3.2 km/h 95% 0.0 mm 0 W/m2
03:10 15.6 °C 14.8 °C 1009.1 hPa WNW 1.4 km/h 4.8 km/h 95% 0.0 mm 0 W/m2
03:15 15.5 °C 14.7 °C 1009.1 hPa Calm   1.6 km/h 95% 0.0 mm 0 W/m2
03:20 15.5 °C 14.7 °C 1008.8 hPa Calm   1.6 km/h 95% 0.0 mm 0 W/m2
03:25 15.5 °C 14.7 °C 1008.8 hPa Calm   3.2 km/h 95% 0.0 mm 0 W/m2
03:30 15.5 °C 14.7 °C 1009.1 hPa NNE 1.4 km/h 3.2 km/h 95% 0.0 mm 0 W/m2
03:35 15.6 °C 14.8 °C 1008.8 hPa Calm     95% 0.0 mm 0 W/m2
03:40 15.5 °C 14.7 °C 1008.8 hPa NW 1.4 km/h 3.2 km/h 95% 0.0 mm 0 W/m2
03:45 15.5 °C 14.7 °C 1008.8 hPa Calm     95% 0.0 mm 0 W/m2
03:50 15.5 °C 14.7 °C 1008.8 hPa ENE 1.4 km/h 4.8 km/h 95% 0.0 mm 0 W/m2
03:55 15.5 °C 14.7 °C 1008.8 hPa Calm   1.6 km/h 95% 0.0 mm 0 W/m2
04:00 15.5 °C 14.7 °C 1008.8 hPa NE 1.4 km/h 3.2 km/h 95% 0.0 mm 0 W/m2
04:05 15.5 °C 14.7 °C 1008.8 hPa Calm     95% 0.0 mm 0 W/m2
04:10 15.5 °C 14.7 °C 1008.8 hPa Calm   1.6 km/h 95% 0.0 mm 0 W/m2
04:15 15.5 °C 14.7 °C 1008.8 hPa Calm     95% 0.0 mm 0 W/m2
04:20 15.5 °C 14.7 °C 1008.8 hPa NE 1.4 km/h 3.2 km/h 95% 0.0 mm 0 W/m2
04:25 15.5 °C 14.7 °C 1008.8 hPa ENE 3.2 km/h 3.2 km/h 95% 0.0 mm 0 W/m2
04:30 15.5 °C 14.7 °C 1009.1 hPa East 1.4 km/h 1.6 km/h 95% 0.0 mm 0 W/m2
04:35 15.6 °C 14.8 °C 1009.1 hPa ENE 1.4 km/h 4.8 km/h 95% 0.0 mm 0 W/m2
04:40 15.6 °C 14.8 °C 1009.1 hPa NE 3.2 km/h 6.4 km/h 95% 0.0 mm 0 W/m2
04:45 15.6 °C 14.8 °C 1009.1 hPa ESE 1.4 km/h 3.2 km/h 95% 0.0 mm 0 W/m2
04:50 15.6 °C 14.6 °C 1009.1 hPa Calm   6.4 km/h 94% 0.0 mm 0 W/m2
04:55 15.6 °C 14.8 °C 1009.1 hPa East 1.4 km/h 4.8 km/h 95% 0.0 mm 0 W/m2
05:00 15.6 °C 14.6 °C 1009.1 hPa East 3.2 km/h 6.4 km/h 94% 0.0 mm 0 W/m2
05:05 15.6 °C 14.6 °C 1009.1 hPa Calm   3.2 km/h 94% 0.0 mm 0 W/m2
05:10 15.6 °C 14.8 °C 1009.1 hPa ENE 1.4 km/h 6.4 km/h 95% 0.0 mm 0 W/m2
05:15 15.6 °C 14.6 °C 1009.1 hPa Calm   3.2 km/h 94% 0.0 mm 0 W/m2
05:20 15.6 °C 14.6 °C 1009.1 hPa Calm   3.2 km/h 94% 0.0 mm 0 W/m2
05:25 15.6 °C 14.6 °C 1009.1 hPa Calm     94% 0.0 mm 0 W/m2
05:30 15.6 °C 14.6 °C 1009.1 hPa Calm   3.2 km/h 94% 0.0 mm 0 W/m2
05:35 15.6 °C 14.6 °C 1008.8 hPa Calm   3.2 km/h 94% 0.0 mm 0 W/m2
05:40 15.6 °C 14.6 °C 1008.8 hPa NE 3.2 km/h 3.2 km/h 94% 0.0 mm 0 W/m2
05:45 15.5 °C 14.5 °C 1008.8 hPa Calm   4.8 km/h 94% 0.0 mm 0 W/m2
05:50 15.4 °C 14.4 °C 1008.8 hPa Calm     94% 0.0 mm 5 W/m2
05:55 15.4 °C 14.4 °C 1008.8 hPa NE 1.4 km/h 4.8 km/h 94% 0.0 mm 5 W/m2
06:00 15.4 °C 14.6 °C 1008.8 hPa Calm   1.6 km/h 95% 0.0 mm 7 W/m2
06:05 15.4 °C 14.6 °C 1008.8 hPa North 3.2 km/h 4.8 km/h 95% 0.0 mm 7 W/m2
06:10 15.5 °C 14.7 °C 1008.8 hPa Calm     95% 0.0 mm 9 W/m2
06:16 15.5 °C 14.7 °C 1008.8 hPa North 1.4 km/h 6.4 km/h 95% 0.0 mm 9 W/m2
06:21 15.5 °C 14.7 °C 1009.1 hPa NNE 1.4 km/h 3.2 km/h 95% 0.0 mm 7 W/m2
06:26 15.5 °C 14.7 °C 1008.8 hPa Calm   6.4 km/h 95% 0.0 mm 7 W/m2
06:31 15.6 °C 14.8 °C 1009.1 hPa Calm     95% 0.0 mm 7 W/m2
06:36 15.6 °C 14.8 °C 1009.1 hPa NNE 1.4 km/h 3.2 km/h 95% 0.0 mm 7 W/m2
06:41 15.6 °C 14.8 °C 1009.1 hPa ENE 3.2 km/h 3.2 km/h 95% 0.0 mm 11 W/m2
06:46 15.6 °C 14.6 °C 1009.1 hPa Calm   3.2 km/h 94% 0.0 mm 9 W/m2
06:51 15.6 °C 14.6 °C 1009.1 hPa NE 3.2 km/h 3.2 km/h 94% 0.0 mm 9 W/m2
06:56 15.6 °C 14.8 °C 1009.1 hPa East 3.2 km/h 8 km/h 95% 0.0 mm 7 W/m2
07:01 15.6 °C 14.6 °C 1009.1 hPa North 3.2 km/h 4.8 km/h 94% 0.0 mm 7 W/m2
07:06 15.7 °C 14.7 °C 1009.1 hPa NNE 3.2 km/h 4.8 km/h 94% 0.0 mm 7 W/m2
07:11 15.7 °C 14.7 °C 1009.1 hPa Calm     94% 0.0 mm 11 W/m2
07:16 15.7 °C 14.7 °C 1009.1 hPa Calm   4.8 km/h 94% 0.0 mm 14 W/m2
07:21 15.7 °C 14.7 °C 1009.1 hPa NE 1.4 km/h 3.2 km/h 94% 0.0 mm 16 W/m2
07:26 15.7 °C 14.7 °C 1009.1 hPa Calm     94% 0.0 mm 16 W/m2
07:31 15.7 °C 14.7 °C 1009.1 hPa Calm     94% 0.2 mm 21 W/m2
07:36 15.7 °C 14.7 °C 1009.1 hPa North 4.8 km/h 4.8 km/h 94% 0.5 mm 25 W/m2
07:41 15.7 °C 14.7 °C 1009.1 hPa Calm   1.6 km/h 94% 0.5 mm 32 W/m2
07:46 15.7 °C 14.7 °C 1009.1 hPa NE 1.4 km/h 3.2 km/h 94% 0.5 mm 39 W/m2
07:51 15.7 °C 14.9 °C 1009.1 hPa NNE 1.4 km/h 6.4 km/h 95% 0.5 mm 28 W/m2
07:56 15.7 °C 14.9 °C 1009.1 hPa Calm   3.2 km/h 95% 0.5 mm 26 W/m2
08:01 15.7 °C 14.9 °C 1009.1 hPa Calm   6.4 km/h 95% 0.5 mm 28 W/m2
08:06 15.7 °C 14.9 °C 1009.1 hPa East 1.4 km/h 3.2 km/h 95% 0.5 mm 49 W/m2
08:11 15.7 °C 14.9 °C 1009.1 hPa Calm   4.8 km/h 95% 0.5 mm 56 W/m2
08:16 15.7 °C 14.9 °C 1009.1 hPa Calm   1.6 km/h 95% 0.5 mm 60 W/m2
08:21 15.7 °C 14.9 °C 1009.1 hPa Calm   3.2 km/h 95% 0.8 mm 70 W/m2
08:26 15.7 °C 14.9 °C 1009.1 hPa Calm   3.2 km/h 95% 0.8 mm 63 W/m2
08:31 15.8 °C 15 °C 1009.1 hPa North 1.4 km/h 3.2 km/h 95% 0.5 mm 83 W/m2
08:36 15.8 °C 15 °C 1009.1 hPa Calm     95% 0.5 mm 144 W/m2
08:41 15.9 °C 15.1 °C 1009.1 hPa Calm     95% 0.5 mm 149 W/m2
08:46 16.1 °C 15.3 °C 1009.1 hPa Calm   1.6 km/h 95% 0.5 mm 120 W/m2
08:51 16.1 °C 15.3 °C 1009.1 hPa NE 1.4 km/h 3.2 km/h 95% 0.5 mm 114 W/m2
08:56 16.1 °C 15.3 °C 1009.1 hPa Calm   3.2 km/h 95% 0.2 mm 105 W/m2
09:01 16.1 °C 15.3 °C 1009.1 hPa Calm   3.2 km/h 95% 0.2 mm 107 W/m2
09:06 16.1 °C 15.3 °C 1009.1 hPa NNE 1.4 km/h 3.2 km/h 95% 0.2 mm 114 W/m2
09:11 16.2 °C 15.4 °C 1009.1 hPa Calm   3.2 km/h 95% 0.2 mm 116 W/m2
09:16 16.2 °C 15.4 °C 1009.1 hPa NW 3.2 km/h 6.4 km/h 95% 0.2 mm 121 W/m2
09:21 16.2 °C 15.4 °C 1009.1 hPa Calm   1.6 km/h 95% 0.0 mm 98 W/m2
09:26 16.3 °C 15.5 °C 1009.1 hPa Calm   3.2 km/h 95% 0.0 mm 95 W/m2
09:31 16.3 °C 15.3 °C 1009.1 hPa Calm   3.2 km/h 94% 0.0 mm 109 W/m2
09:36 16.4 °C 15.6 °C 1009.1 hPa Calm   1.6 km/h 95% 0.0 mm 97 W/m2
09:41 16.4 °C 15.4 °C 1009.1 hPa NW 1.4 km/h 1.6 km/h 94% 0.0 mm 113 W/m2
09:46 16.4 °C 15.4 °C 1009.1 hPa SSE 3.2 km/h 4.8 km/h 94% 0.0 mm 88 W/m2
09:51 16.4 °C 15.4 °C 1009.1 hPa WNW 3.2 km/h 4.8 km/h 94% 0.0 mm 91 W/m2
09:56 16.3 °C 15.3 °C 1009.1 hPa Calm   3.2 km/h 94% 0.0 mm 113 W/m2
10:01 16.4 °C 15.4 °C 1009.1 hPa WNW 6.4 km/h 8 km/h 94% 0.0 mm 86 W/m2
10:06 16.4 °C 15.4 °C 1009.1 hPa NW 4.7 km/h 6.4 km/h 94% 0.0 mm 97 W/m2
10:11 16.3 °C 15.3 °C 1009.1 hPa WNW 3.2 km/h 4.8 km/h 94% 0.0 mm 105 W/m2
10:16 16.4 °C 15.6 °C 1009.5 hPa NW 4.7 km/h 4.8 km/h 95% 0.0 mm 118 W/m2
10:21 16.4 °C 15.4 °C 1009.5 hPa NW 4.7 km/h 6.4 km/h 94% 0.0 mm 111 W/m2
10:26 16.4 °C 15.6 °C 1009.5 hPa Calm   4.8 km/h 95% 0.0 mm 98 W/m2
10:31 16.4 °C 15.6 °C 1009.5 hPa NW 3.2 km/h 6.4 km/h 95% 0.0 mm 114 W/m2
10:36 16.4 °C 15.6 °C 1009.5 hPa Calm   3.2 km/h 95% 0.0 mm 114 W/m2
10:41 16.5 °C 15.7 °C 1009.5 hPa Calm   4.8 km/h 95% 0.0 mm 111 W/m2
10:46 16.5 °C 15.7 °C 1009.5 hPa Calm     95% 0.0 mm 95 W/m2
10:51 16.6 °C 15.8 °C 1009.5 hPa Calm     95% 0.0 mm 77 W/m2
10:56 16.7 °C 15.7 °C 1009.5 hPa WNW 1.4 km/h 3.2 km/h 94% 0.0 mm 81 W/m2
11:01 16.7 °C 15.7 °C 1009.5 hPa Calm   1.6 km/h 94% 0.0 mm 116 W/m2
11:06 16.7 °C 15.9 °C 1009.5 hPa West 1.4 km/h 3.2 km/h 95% 0.0 mm 111 W/m2
11:11 16.8 °C 16 °C 1009.5 hPa NW 1.4 km/h 6.4 km/h 95% 0.0 mm 113 W/m2
11:16 16.8 °C 16 °C 1009.5 hPa WNW 1.4 km/h 4.8 km/h 95% 0.0 mm 120 W/m2
11:21 16.8 °C 16 °C 1009.5 hPa Calm   1.6 km/h 95% 0.0 mm 111 W/m2
11:26 16.9 °C 16.1 °C 1009.5 hPa Calm     95% 0.0 mm 95 W/m2
11:31 16.9 °C 16.1 °C 1009.5 hPa Calm     95% 0.0 mm 91 W/m2
11:36 17.1 °C 16.3 °C 1009.5 hPa Calm   1.6 km/h 95% 0.0 mm 116 W/m2
11:42 17.1 °C 16.3 °C 1009.5 hPa Calm   1.6 km/h 95% 0.0 mm 156 W/m2
11:47 17.2 °C 16.4 °C 1009.5 hPa Calm   1.6 km/h 95% 0.0 mm 165 W/m2
11:52 17.3 °C 16.3 °C 1009.8 hPa NW 1.4 km/h 4.8 km/h 94% 0.0 mm 104 W/m2
11:57 17.3 °C 16.3 °C 1009.8 hPa SW 1.4 km/h 6.4 km/h 94% 0.0 mm 102 W/m2
12:02 17.4 °C 16.4 °C 1009.5 hPa Calm   1.6 km/h 94% 0.0 mm 120 W/m2
12:07 17.4 °C 16.4 °C 1009.5 hPa WNW 6.4 km/h 6.4 km/h 94% 0.0 mm 146 W/m2
12:12 17.5 °C 16.5 °C 1009.5 hPa WNW 1.4 km/h 4.8 km/h 94% 0.0 mm 167 W/m2
12:17 17.5 °C 16.5 °C 1009.5 hPa West 1.4 km/h 3.2 km/h 94% 0.0 mm 162 W/m2
12:22 17.5 °C 16.5 °C 1009.5 hPa WNW 1.4 km/h 4.8 km/h 94% 0.0 mm 128 W/m2
12:27 17.6 °C 16.6 °C 1009.5 hPa West 3.2 km/h 4.8 km/h 94% 0.0 mm 104 W/m2
12:32 17.6 °C 16.6 °C 1009.5 hPa WNW 1.4 km/h 4.8 km/h 94% 0.0 mm 95 W/m2
12:37 17.7 °C 16.7 °C 1009.8 hPa WNW 3.2 km/h 3.2 km/h 94% 0.0 mm 76 W/m2
12:42 17.7 °C 16.7 °C 1009.8 hPa WNW 1.4 km/h 4.8 km/h 94% 0.0 mm 60 W/m2
12:47 17.8 °C 16.8 °C 1009.8 hPa West 3.2 km/h 6.4 km/h 94% 0.0 mm 39 W/m2
12:52 17.7 °C 16.7 °C 1009.8 hPa West 4.7 km/h 6.4 km/h 94% 0.0 mm 39 W/m2
12:57 17.7 °C 16.6 °C 1009.8 hPa West 3.2 km/h 4.8 km/h 93% 0.0 mm 53 W/m2
13:02 17.6 °C 16.5 °C 1009.8 hPa West 4.7 km/h 6.4 km/h 93% 0.0 mm 79 W/m2
13:07 17.6 °C 16.5 °C 1009.8 hPa West 9.7 km/h 14.5 km/h 93% 0.2 mm 79 W/m2
13:12 17.4 °C 16.3 °C 1009.8 hPa WSW 7.9 km/h 11.3 km/h 93% 0.2 mm 93 W/m2
13:17 17.3 °C 16.3 °C 1009.8 hPa NW 3.2 km/h 8 km/h 94% 0.5 mm 88 W/m2
13:22 17.2 °C 16.2 °C 1009.8 hPa NNW 6.4 km/h 12.9 km/h 94% 0.8 mm 77 W/m2
13:27 17.2 °C 16.2 °C 1009.8 hPa WNW 6.4 km/h 8 km/h 94% 1.0 mm 63 W/m2
13:32 17.1 °C 16.1 °C 1009.8 hPa WSW 4.7 km/h 6.4 km/h 94% 1.5 mm 60 W/m2
13:37 17 °C 16 °C 1009.8 hPa NW 6.4 km/h 9.7 km/h 94% 1.8 mm 76 W/m2
13:42 16.9 °C 15.9 °C 1009.8 hPa West 3.2 km/h 9.7 km/h 94% 2.3 mm 84 W/m2
13:47 16.8 °C 15.8 °C 1010.2 hPa West 4.7 km/h 12.9 km/h 94% 2.8 mm 97 W/m2
13:52 16.7 °C 15.7 °C 1010.2 hPa West 4.7 km/h 12.9 km/h 94% 3.3 mm 76 W/m2
13:57 16.7 °C 15.7 °C 1009.8 hPa WNW 4.7 km/h 8 km/h 94% 4.3 mm 83 W/m2
14:02 16.7 °C 15.9 °C 1009.8 hPa West 6.4 km/h 12.9 km/h 95% 4.6 mm 91 W/m2
14:07 16.6 °C 15.8 °C 1010.2 hPa West 6.4 km/h 12.9 km/h 95% 4.8 mm 91 W/m2
14:12 16.6 °C 15.8 °C 1010.2 hPa WNW 4.7 km/h 6.4 km/h 95% 5.3 mm 86 W/m2
14:17 16.5 °C 15.7 °C 1010.2 hPa West 9.7 km/h 16.1 km/h 95% 5.3 mm 76 W/m2
14:22 16.4 °C 15.6 °C 1010.2 hPa WNW 6.4 km/h 14.5 km/h 95% 5.3 mm 81 W/m2
14:27 16.3 °C 15.5 °C 1010.2 hPa West 6.4 km/h 11.3 km/h 95% 5.6 mm 77 W/m2
14:32 16.3 °C 15.5 °C 1010.2 hPa West 6.4 km/h 8 km/h 95% 5.8 mm 74 W/m2
14:37 16.3 °C 15.5 °C 1010.2 hPa WNW 13 km/h 14.5 km/h 95% 5.8 mm 72 W/m2
14:42 16.3 °C 15.5 °C 1010.2 hPa WNW 7.9 km/h 11.3 km/h 95% 5.6 mm 74 W/m2
14:47 16.2 °C 15.4 °C 1010.2 hPa WSW 4.7 km/h 8 km/h 95% 5.6 mm 70 W/m2
14:52 16.2 °C 15.4 °C 1010.2 hPa NW 1.4 km/h 6.4 km/h 95% 5.3 mm 60 W/m2
14:57 16.2 °C 15.4 °C 1010.2 hPa West 3.2 km/h 9.7 km/h 95% 5.1 mm 54 W/m2
15:02 16.1 °C 15.3 °C 1010.2 hPa West 3.2 km/h 4.8 km/h 95% 5.1 mm 58 W/m2
15:07 16.2 °C 15.4 °C 1010.2 hPa WNW 3.2 km/h 6.4 km/h 95% 5.1 mm 60 W/m2
15:12 16.2 °C 15.4 °C 1010.2 hPa West 6.4 km/h 9.7 km/h 95% 4.8 mm 72 W/m2
15:17 16.1 °C 15.3 °C 1010.2 hPa Calm   9.7 km/h 95% 4.8 mm 67 W/m2
15:22 16.1 °C 15.3 °C 1010.2 hPa West 3.2 km/h 11.3 km/h 95% 5.1 mm 51 W/m2
15:27 16.1 °C 15.3 °C 1010.2 hPa WNW 4.7 km/h 8 km/h 95% 5.1 mm 46 W/m2
15:32 16.1 °C 15.3 °C 1010.2 hPa WNW 11.1 km/h 11.3 km/h 95% 5.1 mm 44 W/m2
15:37 16.1 °C 15.3 °C 1010.2 hPa West 4.7 km/h 14.5 km/h 95% 5.1 mm 47 W/m2
15:42 16 °C 15.2 °C 1010.2 hPa WNW 3.2 km/h 11.3 km/h 95% 5.3 mm 46 W/m2
15:47 16 °C 15.2 °C 1010.2 hPa West 4.7 km/h 16.1 km/h 95% 5.3 mm 53 W/m2
15:52 16 °C 15.2 °C 1010.2 hPa West 3.2 km/h 6.4 km/h 95% 5.8 mm 65 W/m2
15:57 16 °C 15.2 °C 1010.2 hPa West 3.2 km/h 12.9 km/h 95% 6.1 mm 69 W/m2
16:02 16.1 °C 15.3 °C 1010.2 hPa West 9.7 km/h 16.1 km/h 95% 6.6 mm 70 W/m2
16:07 16.1 °C 15.3 °C 1010.2 hPa WNW 13 km/h 12.9 km/h 95% 7.1 mm 63 W/m2
16:12 16.1 °C 15.5 °C 1010.2 hPa West 1.4 km/h 14.5 km/h 96% 8.1 mm 53 W/m2
16:17 16.1 °C 15.5 °C 1010.2 hPa WNW 1.4 km/h 9.7 km/h 96% 8.4 mm 46 W/m2
16:22 16.1 °C 15.5 °C 1010.2 hPa WSW 7.9 km/h 16.1 km/h 96% 8.6 mm 42 W/m2
16:27 16.1 °C 15.5 °C 1010.2 hPa WNW 11.1 km/h 14.5 km/h 96% 9.7 mm 49 W/m2
16:32 16.1 °C 15.5 °C 1010.2 hPa WNW 6.4 km/h 14.5 km/h 96% 10.4 mm 40 W/m2
16:37 16.1 °C 15.5 °C 1010.2 hPa WNW 11.1 km/h 12.9 km/h 96% 10.4 mm 37 W/m2
16:42 16.1 °C 15.5 °C 1010.2 hPa WNW 7.9 km/h 11.3 km/h 96% 10.7 mm 37 W/m2
16:47 16.1 °C 15.5 °C 1010.2 hPa WNW 3.2 km/h 8 km/h 96% 11.7 mm 30 W/m2
16:52 16.1 °C 15.5 °C 1010.5 hPa WNW 6.4 km/h 14.5 km/h 96% 11.7 mm 23 W/m2
16:57 16 °C 15.4 °C 1010.5 hPa West 6.4 km/h 6.4 km/h 96% 11.4 mm 21 W/m2
17:02 16 °C 15.4 °C 1010.5 hPa West 13 km/h 14.5 km/h 96% 11.2 mm 21 W/m2
17:07 16 °C 15.4 °C 1010.5 hPa WNW 1.4 km/h 6.4 km/h 96% 10.9 mm 25 W/m2
17:12 16 °C 15.4 °C 1010.2 hPa West 3.2 km/h 8 km/h 96% 9.9 mm 23 W/m2
17:17 15.9 °C 15.3 °C 1010.2 hPa West 6.4 km/h 11.3 km/h 96% 9.9 mm 30 W/m2
17:22 15.9 °C 15.3 °C 1010.2 hPa WSW 6.4 km/h 17.7 km/h 96% 9.7 mm 30 W/m2
17:27 15.9 °C 15.3 °C 1010.2 hPa West 6.4 km/h 12.9 km/h 96% 8.4 mm 26 W/m2
17:32 15.8 °C 15.2 °C 1010.2 hPa SW 6.4 km/h 17.7 km/h 96% 7.6 mm 26 W/m2
17:37 15.8 °C 15.2 °C 1010.2 hPa West 9.7 km/h 12.9 km/h 96% 7.6 mm 32 W/m2
17:42 15.8 °C 15.2 °C 1010.2 hPa WNW 9.7 km/h 16.1 km/h 96% 7.4 mm 19 W/m2
17:47 15.8 °C 15.2 °C 1010.2 hPa WNW 6.4 km/h 14.5 km/h 96% 6.6 mm 30 W/m2
17:52 15.8 °C 15.2 °C 1010.5 hPa WNW 1.4 km/h 6.4 km/h 96% 6.1 mm 30 W/m2
17:57 15.8 °C 15.2 °C 1010.5 hPa West 6.4 km/h 11.3 km/h 96% 5.8 mm 26 W/m2
18:02 15.7 °C 15.1 °C 1010.5 hPa West 6.4 km/h 12.9 km/h 96% 5.3 mm 21 W/m2
18:07 15.7 °C 15.1 °C 1010.5 hPa NW 7.9 km/h 9.7 km/h 96% 5.3 mm 18 W/m2
18:12 15.7 °C 15.1 °C 1010.5 hPa West 1.4 km/h 12.9 km/h 96% 5.1 mm 19 W/m2
18:17 15.7 °C 15.1 °C 1010.5 hPa NW 4.7 km/h 9.7 km/h 96% 4.8 mm 18 W/m2
18:22 15.7 °C 15.1 °C 1010.5 hPa West 1.4 km/h 11.3 km/h 96% 5.3 mm 19 W/m2
18:27 15.7 °C 15.1 °C 1010.5 hPa West 4.7 km/h 4.8 km/h 96% 5.6 mm 14 W/m2
18:32 15.6 °C 15 °C 1010.5 hPa West 4.7 km/h 6.4 km/h 96% 5.8 mm 14 W/m2
18:37 15.6 °C 15 °C 1010.5 hPa West 4.7 km/h 6.4 km/h 96% 5.6 mm 14 W/m2
18:42 15.6 °C 15 °C 1010.5 hPa West 4.7 km/h 6.4 km/h 96% 5.6 mm 18 W/m2
18:47 15.6 °C 15 °C 1010.5 hPa WSW 3.2 km/h 12.9 km/h 96% 5.6 mm 21 W/m2
18:52 15.5 °C 14.9 °C 1010.5 hPa West 6.4 km/h 11.3 km/h 96% 5.6 mm 21 W/m2
18:57 15.5 °C 14.9 °C 1010.5 hPa WNW 4.7 km/h 12.9 km/h 96% 5.8 mm 25 W/m2
19:02 15.5 °C 14.9 °C 1010.5 hPa WSW 7.9 km/h 9.7 km/h 96% 5.8 mm 23 W/m2
19:07 15.5 °C 14.9 °C 1010.5 hPa WSW 3.2 km/h 9.7 km/h 96% 5.6 mm 21 W/m2
19:12 15.5 °C 14.9 °C 1010.5 hPa WNW 4.7 km/h 9.7 km/h 96% 5.8 mm 19 W/m2
19:17 15.4 °C 14.8 °C 1010.5 hPa WNW 6.4 km/h 8 km/h 96% 5.3 mm 18 W/m2
19:22 15.4 °C 14.8 °C 1010.5 hPa West 9.7 km/h 11.3 km/h 96% 4.8 mm 16 W/m2
19:27 15.4 °C 14.8 °C 1010.5 hPa WSW 3.2 km/h 6.4 km/h 96% 4.6 mm 16 W/m2
19:32 15.4 °C 14.8 °C 1010.5 hPa WSW 6.4 km/h 12.9 km/h 96% 4.3 mm 16 W/m2
19:37 15.4 °C 14.8 °C 1010.5 hPa WNW 4.7 km/h 9.7 km/h 96% 4.1 mm 18 W/m2
19:42 15.4 °C 14.8 °C 1010.5 hPa West 4.7 km/h 11.3 km/h 96% 3.8 mm 19 W/m2
19:47 15.4 °C 14.8 °C 1010.5 hPa West 6.4 km/h 14.5 km/h 96% 3.8 mm 23 W/m2
19:52 15.4 °C 14.8 °C 1010.2 hPa WNW 11.1 km/h 11.3 km/h 96% 3.8 mm 21 W/m2
19:57 15.4 °C 14.8 °C 1010.2 hPa WSW 6.4 km/h 14.5 km/h 96% 4.1 mm 18 W/m2
20:02 15.4 °C 14.8 °C 1010.2 hPa WSW 4.7 km/h 14.5 km/h 96% 3.8 mm 19 W/m2
20:07 15.3 °C 14.7 °C 1010.2 hPa WSW 4.7 km/h 16.1 km/h 96% 4.1 mm 19 W/m2
20:12 15.3 °C 14.7 °C 1010.2 hPa WNW 7.9 km/h 11.3 km/h 96% 4.1 mm 14 W/m2
20:17 15.3 °C 14.7 °C 1010.2 hPa WNW 4.7 km/h 9.7 km/h 96% 4.3 mm 12 W/m2
20:22 15.3 °C 14.7 °C 1010.2 hPa SW 9.7 km/h 12.9 km/h 96% 4.3 mm 9 W/m2
20:28 15.3 °C 14.7 °C 1010.2 hPa West 6.4 km/h 11.3 km/h 96% 4.3 mm 7 W/m2
20:33 15.3 °C 14.7 °C 1010.2 hPa WSW 7.9 km/h 11.3 km/h 96% 4.3 mm 7 W/m2
20:38 15.3 °C 14.7 °C 1010.2 hPa West 6.4 km/h 12.9 km/h 96% 4.3 mm 5 W/m2
20:43 15.3 °C 14.7 °C 1009.8 hPa West 4.7 km/h 12.9 km/h 96% 4.6 mm 5 W/m2
20:48 15.3 °C 14.7 °C 1009.8 hPa WSW 7.9 km/h 12.9 km/h 96% 5.1 mm 5 W/m2
20:53 15.3 °C 14.7 °C 1009.8 hPa WNW 19.5 km/h 19.3 km/h 96% 4.8 mm 5 W/m2
20:58 15.3 °C 14.7 °C 1009.5 hPa WSW 14.3 km/h 14.5 km/h 96% 4.6 mm 0 W/m2
21:03 15.2 °C 14.6 °C 1009.5 hPa WNW 11.1 km/h 14.5 km/h 96% 4.6 mm 0 W/m2
21:08 15.2 °C 14.6 °C 1009.5 hPa WSW 11.1 km/h 19.3 km/h 96% 4.3 mm 0 W/m2
21:13 15.2 °C 14.6 °C 1009.8 hPa SSE 9.7 km/h 16.1 km/h 96% 4.3 mm 0 W/m2
Juneau County Weather
Compliments of Weather Underground - 2 mb